createdAt,value
2018-07-31T00:01:14.338Z,96.40
2018-07-31T00:03:44.355Z,96.10
2018-07-31T00:08:48.579Z,96.60
2018-07-31T00:11:18.646Z,96.20
2018-07-31T00:13:48.551Z,95.30
2018-07-31T00:16:18.468Z,95.30
2018-07-31T00:18:48.394Z,95.10
2018-07-31T00:23:48.041Z,94.40
2018-07-31T00:26:17.972Z,94.40
2018-07-31T00:31:17.429Z,95.70
2018-07-31T00:33:47.356Z,95.20
2018-07-31T00:36:17.258Z,96.10
2018-07-31T00:38:47.228Z,97.70
2018-07-31T00:41:17.136Z,98.10
2018-07-31T00:43:47.135Z,98.20
2018-07-31T00:46:16.998Z,98.00
2018-07-31T00:48:46.910Z,98.60
2018-07-31T00:51:16.815Z,98.80
2018-07-31T00:53:46.733Z,99.50
2018-07-31T00:56:16.667Z,99.90
2018-07-31T00:58:46.618Z,99.90
2018-07-31T01:01:16.506Z,99.90
2018-07-31T01:03:46.419Z,99.90
2018-07-31T01:06:19.458Z,99.90
2018-07-31T01:08:49.482Z,99.90
2018-07-31T01:11:19.386Z,99.90
2018-07-31T01:13:49.315Z,99.90
2018-07-31T01:16:19.250Z,99.90
2018-07-31T01:18:49.199Z,99.90
2018-07-31T01:21:19.096Z,99.40
2018-07-31T01:23:49.091Z,98.80
2018-07-31T01:28:48.599Z,98.20
2018-07-31T01:31:18.502Z,99.10
2018-07-31T01:38:47.617Z,99.90
2018-07-31T01:41:17.538Z,99.90
2018-07-31T01:46:17.030Z,99.90
2018-07-31T01:48:46.959Z,99.90
2018-07-31T01:51:16.947Z,99.90
2018-07-31T01:53:46.874Z,99.90
2018-07-31T01:56:16.762Z,99.90
2018-07-31T01:58:46.696Z,99.90
2018-07-31T02:01:16.681Z,99.90
2018-07-31T02:03:46.611Z,99.90
2018-07-31T02:06:16.674Z,99.90
2018-07-31T02:08:46.602Z,99.90
2018-07-31T02:11:16.713Z,99.90
2018-07-31T02:13:46.651Z,99.90
2018-07-31T02:16:16.551Z,99.90
2018-07-31T02:21:16.133Z,99.90
2018-07-31T02:23:46.111Z,99.90
2018-07-31T02:28:45.830Z,99.90
2018-07-31T02:31:15.954Z,99.90
2018-07-31T02:33:45.923Z,99.90
2018-07-31T02:36:15.851Z,99.90
2018-07-31T02:38:45.887Z,99.90
2018-07-31T02:41:15.916Z,99.90
2018-07-31T02:43:45.829Z,99.90
2018-07-31T02:46:15.716Z,99.90
2018-07-31T02:48:45.653Z,99.90
2018-07-31T02:51:15.682Z,99.90
2018-07-31T02:53:45.634Z,99.90
2018-07-31T02:56:15.620Z,99.90
2018-07-31T02:58:45.539Z,99.90
2018-07-31T03:01:15.460Z,99.90
2018-07-31T03:06:15.036Z,99.90
2018-07-31T03:08:44.943Z,99.90
2018-07-31T03:11:14.982Z,99.90
2018-07-31T03:13:44.988Z,99.90
2018-07-31T03:16:15.015Z,99.90
2018-07-31T03:18:44.929Z,99.90
2018-07-31T03:21:14.997Z,99.90
2018-07-31T03:23:44.899Z,99.90
2018-07-31T03:26:14.931Z,99.90
2018-07-31T03:28:44.978Z,99.90
2018-07-31T03:31:14.975Z,99.90
2018-07-31T03:33:44.888Z,99.90
2018-07-31T03:36:15.114Z,99.90
2018-07-31T03:38:45.092Z,99.90
2018-07-31T03:41:15.076Z,99.90
2018-07-31T03:43:45.042Z,99.90
2018-07-31T03:46:15.091Z,99.90
2018-07-31T03:48:45.002Z,99.90
2018-07-31T03:51:15.166Z,99.90
2018-07-31T03:53:45.195Z,99.90
2018-07-31T03:56:15.181Z,99.90
2018-07-31T03:58:45.256Z,99.90
2018-07-31T04:01:15.254Z,99.90
2018-07-31T04:06:14.906Z,99.90
2018-07-31T04:08:44.873Z,99.90
2018-07-31T04:13:44.852Z,99.90
2018-07-31T04:16:14.843Z,99.90
2018-07-31T04:18:44.987Z,99.90
2018-07-31T04:21:14.955Z,99.90
2018-07-31T04:23:44.931Z,99.90
2018-07-31T04:26:14.862Z,99.90
2018-07-31T04:28:44.883Z,99.90
2018-07-31T04:31:14.838Z,99.90
2018-07-31T04:33:44.891Z,99.90
2018-07-31T04:36:15.051Z,99.90
2018-07-31T04:38:45.002Z,99.90
2018-07-31T04:41:15.036Z,99.90
2018-07-31T04:43:45.154Z,99.90
2018-07-31T04:46:15.094Z,99.90
2018-07-31T04:51:14.710Z,99.90
2018-07-31T04:53:44.742Z,99.90
2018-07-31T04:56:14.698Z,99.90
2018-07-31T04:58:44.947Z,99.90
2018-07-31T05:03:44.714Z,99.90
2018-07-31T05:06:14.793Z,99.90
2018-07-31T05:08:44.877Z,99.90
2018-07-31T05:11:14.931Z,99.90
2018-07-31T05:13:45.003Z,99.90
2018-07-31T05:16:15.059Z,99.90
2018-07-31T05:18:44.975Z,99.90
2018-07-31T05:23:44.726Z,99.90
2018-07-31T05:28:44.415Z,99.90
2018-07-31T05:31:14.586Z,99.90
2018-07-31T05:33:44.639Z,99.90
2018-07-31T05:38:44.507Z,99.90
2018-07-31T05:46:14.134Z,99.90
2018-07-31T05:48:44.333Z,99.90
2018-07-31T05:51:14.478Z,99.90
2018-07-31T05:53:44.555Z,99.90
2018-07-31T05:56:14.670Z,99.90
2018-07-31T05:58:44.703Z,99.90
2018-07-31T06:01:14.784Z,99.90
2018-07-31T06:03:44.801Z,99.90
2018-07-31T06:06:14.810Z,99.90
2018-07-31T06:08:45.210Z,99.90
2018-07-31T06:11:15.348Z,99.90
2018-07-31T06:13:45.163Z,99.90
2018-07-31T06:16:15.263Z,99.90
2018-07-31T06:18:45.227Z,99.90
2018-07-31T06:21:15.377Z,99.90
2018-07-31T06:23:45.338Z,99.90
2018-07-31T06:26:15.351Z,99.90
2018-07-31T06:28:45.283Z,99.90
2018-07-31T06:31:15.630Z,99.90
2018-07-31T06:33:45.530Z,99.90
2018-07-31T06:36:15.534Z,99.90
2018-07-31T06:38:45.579Z,99.90
2018-07-31T06:41:15.649Z,99.90
2018-07-31T06:43:45.590Z,99.90
2018-07-31T06:46:15.669Z,99.90
2018-07-31T06:48:45.562Z,99.90
2018-07-31T06:51:16.019Z,99.90
2018-07-31T06:53:45.947Z,99.90
2018-07-31T06:56:15.958Z,99.90
2018-07-31T06:58:46.006Z,99.90
2018-07-31T07:01:16.114Z,99.90
2018-07-31T07:06:15.942Z,99.90
2018-07-31T07:08:46.142Z,99.90
2018-07-31T07:11:16.170Z,99.90
2018-07-31T07:13:46.191Z,99.10
2018-07-31T07:16:16.283Z,95.80
2018-07-31T07:21:16.231Z,92.30
2018-07-31T07:23:46.416Z,89.50
2018-07-31T07:26:16.453Z,84.40
2018-07-31T07:28:46.475Z,84.70
2018-07-31T07:33:46.282Z,77.70
2018-07-31T07:38:45.907Z,71.90
2018-07-31T07:41:15.964Z,70.10
2018-07-31T07:43:46.044Z,68.30
2018-07-31T07:46:16.144Z,64.80
2018-07-31T07:48:46.224Z,64.40
2018-07-31T07:51:16.348Z,64.70
2018-07-31T07:53:46.355Z,64.40
2018-07-31T07:58:46.162Z,64.50
2018-07-31T08:01:16.278Z,62.10
2018-07-31T08:06:16.310Z,62.60
2018-07-31T08:08:46.390Z,64.30
2018-07-31T08:11:16.611Z,63.60
2018-07-31T08:13:46.666Z,64.60
2018-07-31T08:16:17.058Z,65.70
2018-07-31T08:18:47.213Z,67.40
2018-07-31T08:21:17.266Z,68.50
2018-07-31T08:23:47.262Z,69.90
2018-07-31T08:26:17.477Z,71.40
2018-07-31T08:28:47.668Z,71.70
2018-07-31T08:31:17.726Z,71.10
2018-07-31T08:33:47.980Z,72.50
2018-07-31T08:36:18.190Z,71.10
2018-07-31T08:38:49.439Z,72.40
2018-07-31T08:41:21.879Z,72.10
2018-07-31T08:43:55.900Z,72.70
2018-07-31T08:46:28.165Z,74.80
2018-07-31T08:49:04.077Z,71.50
2018-07-31T08:54:05.657Z,71.30
2018-07-31T08:56:37.637Z,70.50
2018-07-31T08:59:08.492Z,70.50
2018-07-31T09:01:40.091Z,68.20
2018-07-31T09:04:11.776Z,69.70
2018-07-31T09:06:43.242Z,70.20
2018-07-31T09:09:13.505Z,69.30
2018-07-31T09:11:43.557Z,68.00
2018-07-31T09:14:13.819Z,67.30
2018-07-31T09:16:44.386Z,67.80
2018-07-31T09:19:14.641Z,67.50
2018-07-31T09:21:44.947Z,66.90
2018-07-31T09:24:15.110Z,65.90
2018-07-31T09:29:15.031Z,67.00
2018-07-31T09:31:45.061Z,66.80
2018-07-31T09:34:15.212Z,66.50
2018-07-31T09:36:45.402Z,63.50
2018-07-31T09:39:15.482Z,60.90
2018-07-31T09:41:45.512Z,61.30
2018-07-31T09:44:15.526Z,61.70
2018-07-31T09:46:45.571Z,61.00
2018-07-31T09:49:15.643Z,61.50
2018-07-31T09:51:45.724Z,59.80
2018-07-31T09:54:15.791Z,59.50
2018-07-31T09:56:45.824Z,59.40
2018-07-31T09:59:15.978Z,59.30
2018-07-31T10:01:45.923Z,58.90
2018-07-31T10:04:15.990Z,57.60
2018-07-31T10:06:46.169Z,58.10
2018-07-31T10:11:45.953Z,56.40
2018-07-31T10:14:16.142Z,56.00
2018-07-31T10:16:46.159Z,55.90
2018-07-31T10:19:16.213Z,56.00
2018-07-31T10:21:46.339Z,55.00
2018-07-31T10:24:16.452Z,54.60
2018-07-31T10:26:46.532Z,54.10
2018-07-31T10:29:16.587Z,54.50
2018-07-31T10:31:46.707Z,54.10
2018-07-31T10:36:46.455Z,52.40
2018-07-31T10:39:16.510Z,53.00
2018-07-31T10:41:46.519Z,52.40
2018-07-31T10:44:16.559Z,52.90
2018-07-31T10:46:47.403Z,52.70
2018-07-31T10:49:17.407Z,51.50
2018-07-31T10:54:17.255Z,52.50
2018-07-31T10:56:47.340Z,49.60
2018-07-31T11:01:47.047Z,49.70
2018-07-31T11:04:17.158Z,49.80
2018-07-31T11:06:47.099Z,48.90
2018-07-31T11:09:17.095Z,48.60
2018-07-31T11:11:47.193Z,48.80
2018-07-31T11:16:46.934Z,48.20
2018-07-31T11:19:16.927Z,47.60
2018-07-31T11:21:46.952Z,46.50
2018-07-31T11:24:17.011Z,46.70
2018-07-31T11:26:47.031Z,47.30
2018-07-31T11:29:17.025Z,46.50
2018-07-31T11:31:47.039Z,46.70
2018-07-31T11:34:17.149Z,46.10
2018-07-31T11:36:47.250Z,47.30
2018-07-31T11:39:17.258Z,47.30
2018-07-31T11:41:47.302Z,47.50
2018-07-31T11:44:17.306Z,47.40
2018-07-31T11:46:47.354Z,46.50
2018-07-31T11:49:17.349Z,44.90
2018-07-31T11:54:17.021Z,45.80
2018-07-31T11:56:47.022Z,44.50
2018-07-31T11:59:17.014Z,44.10
2018-07-31T12:01:47.126Z,42.80
2018-07-31T12:04:17.162Z,42.50
2018-07-31T12:06:47.105Z,42.70
2018-07-31T12:09:17.151Z,44.70
2018-07-31T12:11:47.161Z,44.00
2018-07-31T12:14:17.169Z,42.50
2018-07-31T12:16:47.270Z,43.10
2018-07-31T12:19:17.244Z,43.90
2018-07-31T12:21:47.279Z,43.80
2018-07-31T12:24:17.286Z,43.30
2018-07-31T12:26:47.306Z,43.00
2018-07-31T12:29:17.326Z,42.10
2018-07-31T12:31:47.334Z,41.90
2018-07-31T12:34:17.342Z,43.80
2018-07-31T12:36:49.286Z,44.20
2018-07-31T12:39:19.317Z,43.60
2018-07-31T12:41:49.316Z,43.80
2018-07-31T12:44:19.302Z,43.80
2018-07-31T12:46:49.330Z,45.20
2018-07-31T12:49:19.377Z,45.30
2018-07-31T12:51:49.370Z,45.50
2018-07-31T12:54:19.425Z,44.50
2018-07-31T12:56:49.469Z,45.20
2018-07-31T12:59:19.474Z,42.70
2018-07-31T13:01:49.490Z,43.30
2018-07-31T13:04:19.490Z,43.60
2018-07-31T13:06:49.596Z,43.60
2018-07-31T13:09:19.579Z,44.30
2018-07-31T13:11:49.574Z,44.30
2018-07-31T13:14:19.557Z,43.40
2018-07-31T13:16:49.588Z,43.70
2018-07-31T13:19:19.576Z,43.70
2018-07-31T13:21:49.694Z,44.40
2018-07-31T13:24:19.711Z,43.40
2018-07-31T13:26:49.714Z,42.50
2018-07-31T13:29:19.711Z,42.50
2018-07-31T13:31:49.739Z,42.90
2018-07-31T13:34:19.739Z,44.90
2018-07-31T13:36:49.759Z,44.60
2018-07-31T13:39:19.747Z,45.50
2018-07-31T13:41:49.819Z,46.40
2018-07-31T13:44:19.803Z,47.20
2018-07-31T13:46:49.834Z,48.30
2018-07-31T13:49:19.889Z,46.70
2018-07-31T13:51:49.826Z,48.00
2018-07-31T13:54:19.835Z,47.70
2018-07-31T13:56:49.886Z,46.60
2018-07-31T13:59:19.894Z,46.80
2018-07-31T14:01:49.931Z,47.70
2018-07-31T14:04:19.949Z,46.30
2018-07-31T14:06:49.950Z,46.00
2018-07-31T14:09:19.950Z,43.70
2018-07-31T14:11:49.959Z,45.50
2018-07-31T14:14:19.954Z,44.60
2018-07-31T14:16:50.166Z,43.40
2018-07-31T14:19:20.154Z,44.00
2018-07-31T14:21:50.156Z,43.00
2018-07-31T14:24:20.181Z,43.40
2018-07-31T14:26:50.190Z,42.80
2018-07-31T14:29:20.234Z,41.70
2018-07-31T14:31:50.326Z,42.40
2018-07-31T14:36:50.112Z,42.60
2018-07-31T14:39:20.131Z,42.70
2018-07-31T14:41:50.305Z,44.50
2018-07-31T14:44:20.326Z,45.20
2018-07-31T14:46:50.310Z,45.00
2018-07-31T14:49:20.315Z,45.90
2018-07-31T14:51:50.326Z,44.50
2018-07-31T14:54:20.343Z,43.80
2018-07-31T14:56:50.323Z,44.30
2018-07-31T14:59:20.346Z,43.90
2018-07-31T15:01:50.326Z,44.30
2018-07-31T15:04:20.330Z,44.80
2018-07-31T15:06:50.322Z,43.50
2018-07-31T15:09:20.326Z,42.80
2018-07-31T15:11:50.314Z,42.80
2018-07-31T15:14:20.400Z,43.30
2018-07-31T15:16:50.386Z,42.50
2018-07-31T15:19:20.402Z,43.30
2018-07-31T15:21:50.395Z,43.70
2018-07-31T15:24:20.431Z,44.30
2018-07-31T15:26:50.498Z,44.20
2018-07-31T15:29:20.519Z,45.00
2018-07-31T15:31:50.521Z,44.30
2018-07-31T15:34:20.593Z,44.40
2018-07-31T15:36:50.662Z,44.20
2018-07-31T15:39:20.687Z,43.60
2018-07-31T15:41:50.711Z,43.40
2018-07-31T15:44:20.730Z,44.10
2018-07-31T15:46:50.718Z,43.70
2018-07-31T15:49:20.758Z,43.40
2018-07-31T15:51:50.772Z,43.90
2018-07-31T15:54:20.785Z,43.50
2018-07-31T15:56:50.788Z,42.80
2018-07-31T15:59:20.814Z,43.00
2018-07-31T16:01:50.818Z,42.80
2018-07-31T16:04:20.843Z,42.50
2018-07-31T16:06:50.827Z,42.30
2018-07-31T16:09:20.823Z,43.00
2018-07-31T16:11:50.825Z,42.70
2018-07-31T16:14:20.838Z,42.90
2018-07-31T16:16:50.827Z,42.80
2018-07-31T16:19:20.875Z,41.90
2018-07-31T16:21:50.890Z,42.60
2018-07-31T16:24:20.902Z,41.80
2018-07-31T16:26:50.878Z,42.80
2018-07-31T16:29:20.942Z,42.10
2018-07-31T16:31:50.925Z,41.90
2018-07-31T16:34:20.948Z,41.30
2018-07-31T16:36:50.964Z,41.40
2018-07-31T16:39:20.974Z,41.60
2018-07-31T16:41:50.976Z,41.60
2018-07-31T16:44:20.999Z,41.30
2018-07-31T16:46:51.002Z,41.80
2018-07-31T16:49:21.129Z,40.10
2018-07-31T16:51:51.207Z,39.40
2018-07-31T16:54:21.207Z,38.80
2018-07-31T16:56:51.249Z,39.00
2018-07-31T16:59:21.203Z,39.50
2018-07-31T17:01:51.182Z,40.70
2018-07-31T17:04:21.215Z,42.00
2018-07-31T17:06:51.198Z,42.50
2018-07-31T17:09:21.433Z,42.70
2018-07-31T17:11:51.413Z,42.80
2018-07-31T17:14:21.419Z,42.40
2018-07-31T17:19:21.079Z,44.90
2018-07-31T17:21:51.059Z,46.50
2018-07-31T17:24:21.109Z,46.30
2018-07-31T17:26:51.124Z,46.40
2018-07-31T17:29:21.126Z,44.40
2018-07-31T17:31:51.114Z,46.80
2018-07-31T17:34:21.339Z,46.50
2018-07-31T17:36:51.306Z,44.40
2018-07-31T17:39:21.395Z,47.90
2018-07-31T17:41:51.374Z,48.50
2018-07-31T17:44:21.483Z,48.40
2018-07-31T17:46:51.451Z,49.10
2018-07-31T17:49:21.966Z,49.80
2018-07-31T17:51:51.958Z,51.20
2018-07-31T17:54:21.973Z,54.00
2018-07-31T17:56:51.983Z,55.60
2018-07-31T17:59:22.026Z,55.90
2018-07-31T18:01:52.058Z,55.80
2018-07-31T18:04:22.062Z,57.10
2018-07-31T18:06:52.074Z,56.80
2018-07-31T18:09:22.134Z,57.60
2018-07-31T18:11:52.162Z,58.50
2018-07-31T18:14:22.409Z,59.20
2018-07-31T18:16:52.229Z,59.60
2018-07-31T18:19:22.250Z,60.70
2018-07-31T18:21:52.258Z,61.50
2018-07-31T18:24:22.363Z,62.30
2018-07-31T18:26:52.388Z,62.20
2018-07-31T18:29:22.422Z,62.50
2018-07-31T18:31:52.412Z,63.00
2018-07-31T18:34:22.436Z,63.90
2018-07-31T18:36:52.471Z,64.70
2018-07-31T18:39:22.534Z,66.20
2018-07-31T18:41:52.548Z,70.20
2018-07-31T18:46:52.242Z,71.30
2018-07-31T18:51:51.898Z,71.30
2018-07-31T18:54:21.893Z,72.40
2018-07-31T18:56:51.936Z,73.00
2018-07-31T18:59:22.047Z,72.40
2018-07-31T19:01:52.586Z,73.80
2018-07-31T19:04:22.587Z,75.30
2018-07-31T19:06:53.063Z,75.90
2018-07-31T19:09:23.178Z,76.50
2018-07-31T19:11:53.199Z,78.00
2018-07-31T19:14:23.258Z,79.40
2018-07-31T19:16:53.274Z,78.60
2018-07-31T19:21:53.015Z,82.20
2018-07-31T19:24:23.056Z,82.00
2018-07-31T19:26:53.135Z,83.30
2018-07-31T19:29:23.183Z,85.70
2018-07-31T19:31:53.182Z,87.30
2018-07-31T19:34:23.222Z,88.50
2018-07-31T19:39:22.864Z,90.10
2018-07-31T19:41:52.992Z,90.60
2018-07-31T19:44:22.955Z,91.10
2018-07-31T19:46:52.934Z,92.40
2018-07-31T19:49:22.953Z,92.60
2018-07-31T19:51:52.934Z,92.30
2018-07-31T19:54:22.934Z,93.30
2018-07-31T19:56:52.921Z,93.90
2018-07-31T19:59:22.949Z,94.60
2018-07-31T20:01:53.087Z,94.50
2018-07-31T20:04:23.369Z,95.20
2018-07-31T20:06:53.403Z,96.10
2018-07-31T20:09:28.808Z,96.90
2018-07-31T20:12:01.163Z,98.10
2018-07-31T20:14:33.077Z,98.50
2018-07-31T20:17:04.040Z,99.40
2018-07-31T20:19:34.909Z,99.90
2018-07-31T20:22:05.625Z,99.90
2018-07-31T20:24:36.541Z,99.90
2018-07-31T20:27:07.258Z,99.90
2018-07-31T20:29:38.270Z,99.90
2018-07-31T20:32:09.208Z,99.90
2018-07-31T20:34:39.883Z,99.90
2018-07-31T20:37:10.274Z,99.90
2018-07-31T20:39:41.405Z,99.90
2018-07-31T20:42:11.702Z,99.90
2018-07-31T20:49:42.082Z,99.90
2018-07-31T20:52:12.326Z,99.90
2018-07-31T20:54:42.523Z,99.90
2018-07-31T20:57:12.663Z,99.90
2018-07-31T20:59:42.811Z,99.90
2018-07-31T21:02:13.130Z,99.90
2018-07-31T21:04:43.215Z,99.90
2018-07-31T21:14:42.260Z,99.90
2018-07-31T21:17:12.470Z,99.90
2018-07-31T21:19:42.726Z,99.90
2018-07-31T21:22:12.854Z,99.90
2018-07-31T21:24:42.951Z,99.90
2018-07-31T21:27:13.097Z,99.90
2018-07-31T21:29:43.522Z,99.90
2018-07-31T21:32:13.618Z,99.90
2018-07-31T21:34:43.692Z,99.90
2018-07-31T21:37:13.667Z,99.90
2018-07-31T21:39:43.710Z,99.90
2018-07-31T21:42:13.743Z,99.90
2018-07-31T21:47:13.403Z,99.90
2018-07-31T21:49:43.720Z,99.90
2018-07-31T21:52:13.795Z,99.90
2018-07-31T21:54:43.862Z,99.90
2018-07-31T21:57:13.895Z,99.90
2018-07-31T21:59:43.977Z,99.90
2018-07-31T22:04:43.851Z,99.90
2018-07-31T22:07:13.855Z,99.90
2018-07-31T22:09:44.995Z,99.90
2018-07-31T22:12:15.039Z,99.90
2018-07-31T22:14:45.071Z,99.90
2018-07-31T22:17:15.111Z,99.90
2018-07-31T22:19:45.134Z,99.90
2018-07-31T22:22:15.183Z,99.90
2018-07-31T22:27:14.788Z,99.90
2018-07-31T22:29:44.880Z,99.90
2018-07-31T22:32:14.943Z,99.90
2018-07-31T22:37:14.584Z,99.90
2018-07-31T22:39:44.603Z,99.90
2018-07-31T22:42:14.634Z,99.90
2018-07-31T22:44:44.619Z,99.90
2018-07-31T22:47:14.651Z,99.90
2018-07-31T22:49:44.755Z,99.90
2018-07-31T22:52:15.138Z,99.90
2018-07-31T22:54:45.361Z,99.90
2018-07-31T22:57:15.402Z,99.90
2018-07-31T22:59:45.626Z,99.90
2018-07-31T23:04:45.399Z,99.90
2018-07-31T23:07:15.593Z,99.90
2018-07-31T23:09:49.778Z,99.90
2018-07-31T23:14:49.386Z,99.90
2018-07-31T23:17:19.440Z,99.90
2018-07-31T23:19:49.426Z,99.90
2018-07-31T23:22:37.101Z,99.90
2018-07-31T23:25:08.043Z,99.90
2018-07-31T23:27:39.281Z,99.90
2018-07-31T23:30:10.640Z,99.90
2018-07-31T23:32:41.572Z,99.90
2018-07-31T23:35:12.891Z,99.90
2018-07-31T23:37:43.240Z,99.90
2018-07-31T23:40:13.222Z,99.90
2018-07-31T23:42:43.269Z,99.90
2018-07-31T23:45:13.414Z,99.90
2018-07-31T23:47:44.038Z,99.90
2018-07-31T23:50:14.086Z,99.90
2018-07-31T23:52:44.183Z,99.90
2018-07-31T23:55:14.506Z,99.90
2018-07-31T23:57:44.644Z,99.90
